Time;durP1;ratioP1;P1;durP2;ratioP2;P2;SDS_P1;SDS_P2;PMS_P1;PMS_P2;Temp;Humidity;BMP_temperature;BMP_pressure;BME280_temperature;BME280_humidity;BME280_pressure;Samples;Min_cycle;Max_cycle;Signal;HPM_P1;HPM_P2
2021/04/05 00:00:12;;;;;;;40.60;16.10;;;9.90;56.90;;;;;;4975104;28;20038;-63
2021/04/05 00:02:38;;;;;;;26.25;14.80;;;9.90;56.90;;;;;;4981816;28;20038;-63
2021/04/05 00:05:10;;;;;;;34.20;15.90;;;9.90;56.80;;;;;;4973717;28;20547;-65
2021/04/05 00:07:36;;;;;;;30.75;14.60;;;9.90;56.80;;;;;;4976177;28;20038;-63
2021/04/05 00:10:11;;;;;;;28.05;14.57;;;10.00;56.90;;;;;;4982039;28;20051;-64
2021/04/05 00:12:37;;;;;;;34.72;15.02;;;9.90;56.70;;;;;;4976398;28;20095;-64
2021/04/05 00:15:06;;;;;;;35.88;14.68;;;9.90;56.80;;;;;;4976384;28;20439;-63
2021/04/05 00:17:31;;;;;;;34.22;14.23;;;9.90;56.80;;;;;;4982776;28;20053;-62
2021/04/05 00:19:57;;;;;;;27.13;13.68;;;9.90;56.90;;;;;;4977345;28;20483;-64
2021/04/05 00:22:22;;;;;;;26.98;13.02;;;9.90;57.00;;;;;;4978634;28;20119;-65
2021/04/05 00:24:48;;;;;;;30.88;12.73;;;9.90;57.00;;;;;;4983628;28;20049;-64
2021/04/05 00:27:14;;;;;;;28.40;11.75;;;10.00;57.20;;;;;;4996697;28;20593;-63
2021/04/05 00:29:39;;;;;;;30.38;11.70;;;10.00;57.20;;;;;;4993567;28;20081;-67
2021/04/05 00:32:07;;;;;;;27.35;12.45;;;10.00;57.20;;;;;;4994444;28;20475;-62
2021/04/05 00:34:33;;;;;;;25.95;11.32;;;10.10;57.10;;;;;;4990046;28;20034;-64
2021/04/05 00:36:58;;;;;;;28.60;11.65;;;10.10;57.10;;;;;;4992360;28;20034;-65
2021/04/05 00:39:24;;;;;;;25.75;11.35;;;10.20;57.20;;;;;;4984921;28;20615;-61
2021/04/05 00:41:52;;;;;;;29.17;11.88;;;10.30;57.80;;;;;;4980220;28;20550;-65
2021/04/05 00:44:18;;;;;;;27.52;12.02;;;10.30;57.10;;;;;;4984378;28;22200;-63
2021/04/05 00:46:44;;;;;;;32.88;12.52;;;10.30;57.00;;;;;;4977904;28;20053;-62
2021/04/05 00:49:10;;;;;;;27.90;11.77;;;10.40;57.00;;;;;;4977590;28;20582;-64
2021/04/05 00:51:35;;;;;;;23.30;11.30;;;10.40;56.80;;;;;;4987572;28;20033;-65
2021/04/05 00:54:01;;;;;;;24.15;10.82;;;10.40;56.80;;;;;;4981647;28;20077;-62
2021/04/05 00:56:28;;;;;;;24.45;10.80;;;10.50;56.80;;;;;;4978782;28;20492;-63
2021/04/05 00:58:54;;;;;;;19.27;10.93;;;10.50;56.80;;;;;;4972878;28;20062;-65
2021/04/05 01:01:24;;;;;;;29.55;11.38;;;10.50;56.70;;;;;;4974870;28;20038;-64
2021/04/05 01:03:51;;;;;;;23.65;11.15;;;10.50;56.70;;;;;;4973301;28;20049;-64
2021/04/05 01:06:26;;;;;;;27.00;11.40;;;10.50;56.70;;;;;;4977541;28;20034;-64
2021/04/05 01:08:52;;;;;;;23.85;10.18;;;10.50;56.80;;;;;;4976318;28;20068;-63
2021/04/05 01:11:20;;;;;;;35.55;12.70;;;10.50;56.80;;;;;;4982017;28;20038;-63
2021/04/05 01:13:47;;;;;;;27.00;11.27;;;10.50;56.80;;;;;;4976162;28;20476;-62
2021/04/05 01:16:13;;;;;;;27.88;10.88;;;10.50;56.90;;;;;;5005915;23;20678;-61
2021/04/05 01:18:40;;;;;;;24.10;11.00;;;10.50;56.90;;;;;;4970768;28;20036;-63
2021/04/05 01:21:06;;;;;;;21.65;10.32;;;10.50;56.90;;;;;;4971191;28;20037;-63
2021/04/05 01:23:33;;;;;;;26.42;11.35;;;10.50;56.90;;;;;;4975760;28;20031;-62
2021/04/05 01:25:59;;;;;;;27.77;10.43;;;10.50;57.00;;;;;;4969080;28;20052;-63
2021/04/05 01:28:24;;;;;;;28.17;10.57;;;10.60;57.00;;;;;;4972918;28;20111;-63
2021/04/05 01:30:52;;;;;;;34.20;12.40;;;10.60;57.00;;;;;;4981701;28;20408;-63
2021/04/05 01:33:19;;;;;;;27.92;11.52;;;10.60;57.00;;;;;;4967434;28;20034;-62
2021/04/05 01:35:48;;;;;;;25.85;11.90;;;10.70;57.00;;;;;;4966842;28;20619;-63
2021/04/05 01:38:17;;;;;;;28.15;12.52;;;10.70;57.00;;;;;;4971380;28;20179;-62
2021/04/05 01:40:49;;;;;;;31.55;11.80;;;10.70;57.00;;;;;;4980708;28;20054;-62
2021/04/05 01:43:15;;;;;;;26.30;11.38;;;10.70;57.00;;;;;;4975825;28;20037;-63
2021/04/05 01:45:41;;;;;;;29.00;12.07;;;10.80;57.00;;;;;;4995016;28;20041;-62
2021/04/05 01:48:09;;;;;;;32.40;12.95;;;10.80;57.00;;;;;;4968426;28;20492;-63
2021/04/05 01:50:37;;;;;;;33.20;13.00;;;10.80;57.00;;;;;;4976922;28;20096;-62
2021/04/05 01:53:05;;;;;;;29.98;11.45;;;10.80;57.00;;;;;;4991557;28;20030;-62
2021/04/05 01:55:32;;;;;;;26.35;12.43;;;10.90;57.00;;;;;;4973122;28;20030;-63
2021/04/05 01:57:57;;;;;;;35.33;13.60;;;10.90;57.00;;;;;;4972247;28;20038;-62
2021/04/05 02:00:27;;;;;;;31.02;13.65;;;10.90;57.10;;;;;;4968561;28;20091;-62
2021/04/05 02:03:00;;;;;;;33.45;12.13;;;10.90;57.10;;;;;;4984087;28;20407;-62
2021/04/05 02:05:30;;;;;;;35.72;13.98;;;10.90;57.20;;;;;;4985513;28;20088;-63
2021/04/05 02:07:55;;;;;;;31.70;14.52;;;10.90;57.20;;;;;;4963556;28;21403;-63
2021/04/05 02:10:27;;;;;;;34.13;13.52;;;11.00;57.20;;;;;;4985122;28;20038;-63
2021/04/05 02:12:58;;;;;;;36.00;13.20;;;11.00;57.30;;;;;;4971235;28;20099;-62
2021/04/05 02:15:24;;;;;;;41.03;14.35;;;11.00;57.30;;;;;;4966215;28;20048;-63
2021/04/05 02:17:51;;;;;;;34.03;14.27;;;11.10;57.30;;;;;;4968627;28;20040;-63
2021/04/05 02:20:17;;;;;;;40.22;14.48;;;11.10;57.30;;;;;;4973102;28;20058;-63
2021/04/05 02:22:49;;;;;;;36.90;14.07;;;11.20;57.40;;;;;;4966675;28;20670;-63
2021/04/05 02:25:17;;;;;;;37.15;14.48;;;11.10;57.40;;;;;;4973514;28;20037;-63
2021/04/05 02:27:46;;;;;;;32.25;14.98;;;11.20;57.40;;;;;;4972339;28;20054;-63
2021/04/05 02:30:22;;;;;;;35.65;13.77;;;11.20;57.50;;;;;;4968888;28;20034;-63
2021/04/05 02:33:08;;;;;;;36.40;15.57;;;11.20;57.50;;;;;;4969675;28;20080;-63
2021/04/05 02:35:36;;;;;;;47.60;15.40;;;11.30;57.50;;;;;;4971529;28;20053;-63
2021/04/05 02:38:03;;;;;;;39.55;14.00;;;11.30;57.50;;;;;;4968253;28;20222;-62
2021/04/05 02:40:32;;;;;;;39.00;15.52;;;11.30;57.50;;;;;;4973653;28;21566;-62
2021/04/05 02:43:00;;;;;;;39.95;15.55;;;11.30;57.50;;;;;;4973369;28;20045;-63
2021/04/05 02:45:27;;;;;;;40.58;14.98;;;11.40;57.60;;;;;;4977401;28;20041;-62
2021/04/05 02:47:58;;;;;;;33.08;15.63;;;11.40;57.60;;;;;;4965368;28;20053;-63
2021/04/05 02:50:30;;;;;;;41.08;14.55;;;11.40;57.60;;;;;;4952088;28;20864;-62
2021/04/05 02:52:58;;;;;;;38.90;15.25;;;11.40;57.70;;;;;;4965301;28;20920;-63
2021/04/05 02:55:25;;;;;;;42.40;16.30;;;11.50;57.70;;;;;;4959439;28;20030;-63
2021/04/05 02:57:56;;;;;;;44.40;15.45;;;11.50;57.70;;;;;;4975724;28;20037;-63
2021/04/05 03:00:29;;;;;;;47.13;16.25;;;11.50;57.80;;;;;;4968714;28;20038;-62
2021/04/05 03:02:58;;;;;;;45.92;15.32;;;11.50;57.90;;;;;;4968648;28;20124;-62
2021/04/05 03:05:26;;;;;;;40.88;15.38;;;11.50;57.90;;;;;;4977893;28;20151;-62
2021/04/05 03:07:52;;;;;;;36.00;15.15;;;11.50;58.00;;;;;;4975350;28;20776;-63
2021/04/05 03:10:34;;;;;;;44.13;15.60;;;11.50;58.20;;;;;;4978373;28;20042;-63
2021/04/05 03:13:03;;;;;;;49.70;16.75;;;11.50;58.30;;;;;;4973424;28;20042;-63
2021/04/05 03:15:29;;;;;;;44.65;16.30;;;11.40;58.40;;;;;;4974321;28;20045;-63
2021/04/05 03:18:01;;;;;;;46.03;16.88;;;11.50;58.60;;;;;;4968749;28;20065;-63
2021/04/05 03:20:34;;;;;;;55.25;18.30;;;11.40;58.80;;;;;;4968883;28;20443;-63
2021/04/05 03:23:04;;;;;;;55.55;17.77;;;11.40;58.90;;;;;;4973056;28;20492;-63
2021/04/05 03:25:34;;;;;;;45.17;17.00;;;11.40;59.10;;;;;;4969883;28;20488;-63
2021/04/05 03:28:00;;;;;;;42.75;16.63;;;11.40;59.20;;;;;;4969651;28;24595;-63
2021/04/05 03:30:33;;;;;;;50.55;17.83;;;11.40;59.30;;;;;;4973834;28;20368;-63
2021/04/05 03:33:09;;;;;;;43.15;16.88;;;11.30;60.10;;;;;;4976937;28;20100;-63
2021/04/05 03:35:39;;;;;;;54.97;16.75;;;11.30;59.60;;;;;;4965430;28;21099;-63
2021/04/05 03:38:05;;;;;;;49.22;16.80;;;11.30;59.80;;;;;;4967804;28;20058;-62
2021/04/05 03:40:33;;;;;;;52.80;17.92;;;11.30;59.90;;;;;;4973556;28;20276;-63
2021/04/05 03:43:07;;;;;;;51.90;16.83;;;11.30;60.00;;;;;;4975963;28;20060;-63
2021/04/05 03:45:43;;;;;;;57.13;17.52;;;11.30;60.10;;;;;;4989821;28;20038;-64
2021/04/05 03:48:15;;;;;;;47.30;17.73;;;11.30;60.20;;;;;;4990097;28;20065;-63
2021/04/05 03:50:47;;;;;;;43.13;16.08;;;11.30;60.30;;;;;;4969288;28;20384;-63
2021/04/05 03:53:47;;;;;;;41.00;16.40;;;11.30;60.40;;;;;;4971405;28;20129;-63
2021/04/05 03:56:21;;;;;;;45.65;16.27;;;11.30;60.40;;;;;;4970403;28;20042;-63
2021/04/05 03:59:03;;;;;;;48.63;17.02;;;11.20;60.50;;;;;;4966575;28;20120;-64
2021/04/05 04:01:30;;;;;;;45.58;16.55;;;11.20;60.70;;;;;;4980153;28;20629;-64
2021/04/05 04:04:50;;;;;;;53.58;16.10;;;11.20;60.80;;;;;;4980812;28;20081;-64
2021/04/05 04:07:15;;;;;;;49.67;15.73;;;11.20;60.90;;;;;;4974798;28;20046;-65
2021/04/05 04:09:44;;;;;;;30.60;10.52;;;11.20;60.90;;;;;;4978164;28;20042;-64
2021/04/05 04:12:13;;;;;;;38.30;9.00;;;11.20;61.00;;;;;;4974608;28;20050;-65
2021/04/05 04:14:43;;;;;;;17.95;5.43;;;11.20;61.00;;;;;;4977113;28;20901;-65
2021/04/05 04:17:13;;;;;;;21.85;4.45;;;11.10;60.80;;;;;;4972511;28;20999;-65
2021/04/05 04:19:41;;;;;;;18.75;4.60;;;11.10;60.80;;;;;;4977053;28;20046;-65
2021/04/05 04:22:07;;;;;;;16.05;3.33;;;11.00;60.80;;;;;;4976841;28;20046;-64
2021/04/05 04:24:34;;;;;;;10.73;3.17;;;11.00;60.80;;;;;;4976524;28;20539;-64
2021/04/05 04:27:02;;;;;;;11.02;3.17;;;10.90;60.90;;;;;;4976270;28;20145;-65
2021/04/05 04:29:34;;;;;;;14.98;3.55;;;10.90;61.00;;;;;;4976509;28;20042;-64
2021/04/05 04:32:00;;;;;;;7.65;2.30;;;10.80;61.00;;;;;;4973491;28;20115;-65
2021/04/05 04:34:26;;;;;;;5.25;1.40;;;10.80;61.10;;;;;;4970433;28;20092;-65
2021/04/05 04:36:54;;;;;;;2.35;0.95;;;10.80;60.80;;;;;;4980876;28;20074;-64
2021/04/05 04:39:20;;;;;;;2.65;1.05;;;10.60;60.30;;;;;;4970355;28;20045;-64
2021/04/05 04:41:48;;;;;;;5.68;1.10;;;10.50;60.10;;;;;;4984469;28;20038;-64
2021/04/05 04:44:17;;;;;;;3.25;0.90;;;10.40;60.10;;;;;;4983233;28;20062;-64
2021/04/05 04:46:43;;;;;;;3.58;1.10;;;10.30;60.00;;;;;;4997819;28;21371;-64
2021/04/05 04:49:13;;;;;;;5.13;1.10;;;10.20;60.10;;;;;;4982219;28;20038;-64
2021/04/05 04:51:41;;;;;;;3.42;0.80;;;10.10;60.10;;;;;;4970991;28;20203;-65
2021/04/05 04:54:09;;;;;;;3.78;1.00;;;10.00;60.10;;;;;;4990769;28;20494;-64
2021/04/05 04:56:36;;;;;;;4.43;1.15;;;9.90;60.10;;;;;;4974693;28;20111;-64
2021/04/05 04:59:09;;;;;;;3.97;0.80;;;9.90;60.20;;;;;;4971386;28;20085;-64
2021/04/05 05:01:40;;;;;;;6.75;1.25;;;9.80;60.30;;;;;;4975106;28;20049;-64
2021/04/05 05:04:15;;;;;;;1.77;0.85;;;9.80;60.30;;;;;;4971911;28;20041;-64
2021/04/05 05:06:44;;;;;;;3.67;0.73;;;9.70;60.20;;;;;;4969829;28;20038;-64
2021/04/05 05:09:12;;;;;;;3.22;1.05;;;9.70;60.30;;;;;;4983898;23;20454;-62
2021/04/05 05:11:39;;;;;;;4.47;1.27;;;9.70;60.40;;;;;;4973519;28;20227;-63
2021/04/05 05:14:07;;;;;;;2.50;0.77;;;9.60;60.40;;;;;;4968879;28;20168;-62
2021/04/05 05:16:38;;;;;;;3.08;0.93;;;9.60;60.40;;;;;;4975875;28;20057;-62
2021/04/05 05:19:04;;;;;;;3.35;1.20;;;9.60;60.60;;;;;;4977262;28;20133;-61
2021/04/05 05:21:47;;;;;;;3.53;1.08;;;9.60;60.70;;;;;;4975207;28;20042;-62
2021/04/05 05:24:16;;;;;;;6.20;1.45;;;9.60;60.60;;;;;;4972027;28;20067;-63
2021/04/05 05:26:43;;;;;;;4.50;1.30;;;9.60;60.60;;;;;;4973562;28;20096;-61
2021/04/05 05:29:11;;;;;;;4.32;1.40;;;9.50;60.60;;;;;;4974359;28;20026;-62
2021/04/05 05:31:39;;;;;;;5.40;1.55;;;9.60;60.70;;;;;;4992409;28;20396;-62
2021/04/05 05:34:09;;;;;;;4.97;1.27;;;9.50;60.60;;;;;;4978696;28;20033;-62
2021/04/05 05:36:38;;;;;;;8.63;1.50;;;9.50;60.70;;;;;;4975537;28;20077;-62
2021/04/05 05:39:07;;;;;;;11.32;1.70;;;9.50;60.70;;;;;;4974840;28;20045;-61
2021/04/05 05:42:05;;;;;;;8.05;1.50;;;9.50;60.20;;;;;;4986270;28;20082;-61
2021/04/05 05:44:33;;;;;;;6.75;1.08;;;9.50;60.30;;;;;;4975763;28;20589;-61
2021/04/05 05:47:06;;;;;;;1.55;0.80;;;9.40;59.80;;;;;;4981582;28;20044;-62
2021/04/05 05:49:48;;;;;;;10.43;1.25;;;9.20;59.80;;;;;;4991627;28;20320;-63
2021/04/05 05:52:52;;;;;;;6.78;0.90;;;9.10;59.80;;;;;;4974846;28;20042;-61
2021/04/05 05:55:38;;;;;;;4.60;1.00;;;9.00;60.00;;;;;;4982344;28;21672;-62
2021/04/05 05:58:32;;;;;;;5.40;0.90;;;8.90;59.80;;;;;;4999360;28;20168;-62
2021/04/05 06:01:24;;;;;;;3.45;0.90;;;8.80;59.90;;;;;;4978415;28;20064;-61
2021/04/05 06:04:02;;;;;;;5.93;0.90;;;8.70;60.00;;;;;;4983510;28;20300;-62
2021/04/05 06:06:39;;;;;;;6.13;1.25;;;8.70;60.10;;;;;;4981921;28;20133;-62
2021/04/05 06:09:12;;;;;;;8.32;1.30;;;8.70;60.00;;;;;;4974983;28;20900;-62
2021/04/05 06:12:18;;;;;;;7.03;1.10;;;8.80;59.90;;;;;;4975390;28;20092;-62
2021/04/05 06:15:03;;;;;;;4.35;1.00;;;8.70;60.50;;;;;;4970622;28;20045;-61
2021/04/05 06:17:31;;;;;;;3.08;1.05;;;8.70;59.60;;;;;;4987821;28;20069;-65
2021/04/05 06:20:17;;;;;;;5.53;1.40;;;8.70;59.60;;;;;;4973645;28;20414;-63
2021/04/05 06:23:25;;;;;;;4.97;0.88;;;8.70;59.60;;;;;;4978250;28;20180;-64
2021/04/05 06:26:19;;;;;;;4.30;0.90;;;8.70;59.60;;;;;;4967681;28;20030;-64
2021/04/05 06:29:02;;;;;;;5.70;0.90;;;8.70;59.60;;;;;;4969447;28;20039;-64
2021/04/05 06:31:32;;;;;;;10.48;1.35;;;8.70;59.60;;;;;;4968381;28;20526;-63
2021/04/05 06:34:06;;;;;;;7.75;1.23;;;8.80;59.70;;;;;;4963144;28;20284;-64
2021/04/05 06:36:39;;;;;;;5.70;1.00;;;8.80;59.50;;;;;;4981271;28;20064;-64
2021/04/05 06:39:25;;;;;;;10.20;1.52;;;8.80;59.20;;;;;;4972756;28;20675;-63
2021/04/05 06:42:08;;;;;;;10.50;1.70;;;8.80;59.10;;;;;;4976981;28;20126;-64
2021/04/05 06:45:17;;;;;;;6.53;1.10;;;8.80;59.10;;;;;;4977642;28;20175;-64
2021/04/05 06:48:10;;;;;;;6.00;1.48;;;8.80;59.10;;;;;;4987371;28;20037;-64
2021/04/05 06:50:43;;;;;;;12.25;1.63;;;8.70;59.10;;;;;;4976475;28;20523;-63
2021/04/05 06:53:28;;;;;;;9.77;1.20;;;8.80;59.30;;;;;;4977666;28;20048;-63
2021/04/05 06:56:02;;;;;;;10.65;1.80;;;8.80;59.40;;;;;;4974404;28;20045;-64
2021/04/05 06:58:41;;;;;;;9.65;2.60;;;8.80;59.50;;;;;;4968361;28;20030;-64
2021/04/05 07:01:41;;;;;;;8.40;1.77;;;8.90;59.60;;;;;;4974279;28;20040;-65
2021/04/05 07:04:28;;;;;;;10.65;1.77;;;9.00;59.60;;;;;;4978771;28;20139;-64
2021/04/05 07:07:27;;;;;;;10.18;1.90;;;9.10;59.70;;;;;;4980249;28;20053;-63
2021/04/05 07:10:05;;;;;;;9.48;2.00;;;9.20;60.00;;;;;;4978059;28;20045;-64
2021/04/05 07:12:52;;;;;;;9.88;1.50;;;9.30;59.40;;;;;;4968089;28;21158;-64
2021/04/05 07:15:32;;;;;;;9.60;2.17;;;9.60;59.60;;;;;;4971139;28;20065;-63
2021/04/05 07:18:31;;;;;;;11.13;2.10;;;9.80;59.20;;;;;;4982109;28;20096;-63
2021/04/05 07:21:07;;;;;;;5.13;1.48;;;10.00;58.70;;;;;;4977336;28;20053;-64
2021/04/05 07:24:04;;;;;;;10.70;2.20;;;10.10;58.00;;;;;;4980134;28;20037;-64
2021/04/05 07:26:43;;;;;;;17.33;2.33;;;10.10;57.80;;;;;;4966136;28;20042;-63
2021/04/05 07:29:33;;;;;;;15.35;1.90;;;10.10;57.70;;;;;;4969826;28;20129;-63
2021/04/05 07:32:30;;;;;;;13.20;2.10;;;10.20;57.30;;;;;;4968480;28;21507;-64
2021/04/05 07:35:45;;;;;;;12.15;1.73;;;10.20;56.80;;;;;;4969725;28;20038;-64
2021/04/05 07:38:21;;;;;;;7.25;1.60;;;10.30;57.00;;;;;;4912926;28;20043;-63
2021/04/05 07:41:02;;;;;;;6.50;1.67;;;10.30;55.80;;;;;;4967596;28;20048;-63
2021/04/05 07:43:36;;;;;;;9.13;1.52;;;10.10;54.90;;;;;;4983967;28;20038;-64
2021/04/05 07:46:34;;;;;;;7.70;1.55;;;9.80;54.90;;;;;;4983774;28;20038;-63
2021/04/05 07:49:12;;;;;;;9.32;1.65;;;9.60;55.50;;;;;;4988214;28;20045;-63
2021/04/05 07:51:50;;;;;;;7.45;1.52;;;9.60;55.90;;;;;;4989588;28;20107;-63
2021/04/05 07:54:19;;;;;;;10.55;1.70;;;9.70;56.00;;;;;;4988901;28;20412;-64
2021/04/05 07:56:50;;;;;;;10.00;1.90;;;9.90;56.10;;;;;;4993385;28;20088;-64
2021/04/05 07:59:45;;;;;;;9.85;1.40;;;10.30;55.60;;;;;;4999595;28;20042;-63
2021/04/05 08:02:13;;;;;;;10.75;1.67;;;10.40;54.60;;;;;;4993030;28;20037;-64
2021/04/05 08:04:46;;;;;;;12.85;1.77;;;10.50;54.00;;;;;;4986368;28;20514;-63
2021/04/05 08:07:37;;;;;;;8.75;1.80;;;10.60;54.00;;;;;;4989011;28;20113;-63
2021/04/05 08:10:19;;;;;;;9.90;1.98;;;10.70;53.90;;;;;;4990106;28;20042;-63
2021/04/05 08:12:53;;;;;;;9.70;2.45;;;10.70;53.10;;;;;;4982883;28;20046;-63
2021/04/05 08:15:38;;;;;;;13.88;1.83;;;10.50;52.00;;;;;;4986264;28;20049;-63
2021/04/05 08:18:12;;;;;;;11.50;1.67;;;10.20;51.60;;;;;;4985303;28;20050;-63
2021/04/05 08:20:44;;;;;;;13.55;2.15;;;9.70;51.60;;;;;;4991282;28;20423;-64
2021/04/05 08:23:43;;;;;;;7.57;1.42;;;9.30;52.00;;;;;;4996415;28;20399;-63
2021/04/05 08:26:25;;;;;;;7.05;1.33;;;8.90;52.70;;;;;;4969964;28;20665;-62
2021/04/05 08:29:09;;;;;;;11.55;1.60;;;8.60;53.30;;;;;;4983521;28;20080;-62
2021/04/05 08:32:06;;;;;;;12.60;1.50;;;8.40;54.60;;;;;;4986974;28;20092;-63
2021/04/05 08:35:13;;;;;;;5.63;1.17;;;8.30;54.70;;;;;;4981405;28;20049;-63
2021/04/05 08:37:47;;;;;;;6.30;1.55;;;8.20;55.10;;;;;;4966487;28;20034;-62
2021/04/05 08:40:41;;;;;;;7.53;1.40;;;8.20;55.30;;;;;;4987320;28;20129;-63
2021/04/05 08:43:28;;;;;;;8.20;1.40;;;8.10;55.50;;;;;;4928916;28;20039;-62
2021/04/05 08:46:08;;;;;;;8.25;1.30;;;8.20;55.90;;;;;;4980731;28;21223;-62
2021/04/05 08:48:39;;;;;;;7.93;1.90;;;8.50;56.70;;;;;;4972970;28;20054;-62
2021/04/05 08:51:22;;;;;;;9.05;1.58;;;9.30;58.50;;;;;;4977709;28;20038;-64
2021/04/05 08:53:51;;;;;;;6.80;1.67;;;;;;;;;;4984609;28;20045;-64
2021/04/05 08:56:18;;;;;;;9.48;1.67;;;;;;;;;;4973119;28;20065;-65
2021/04/05 08:58:57;;;;;;;10.30;1.73;;;10.50;56.90;;;;;;4985191;28;20096;-62
2021/04/05 09:01:37;;;;;;;17.95;2.47;;;12.20;52.10;;;;;;4981778;28;20173;-64
2021/04/05 09:04:02;;;;;;;17.33;2.75;;;12.30;49.90;;;;;;4995052;28;20127;-64
2021/04/05 09:06:48;;;;;;;18.08;1.80;;;12.20;49.20;;;;;;4976049;28;20042;-63
2021/04/05 09:09:20;;;;;;;16.73;2.35;;;11.70;48.80;;;;;;4979368;28;20046;-63
2021/04/05 09:11:51;;;;;;;19.85;2.83;;;11.20;49.30;;;;;;4981382;28;20168;-63
2021/04/05 09:14:18;;;;;;;20.75;3.17;;;10.80;49.20;;;;;;4979410;28;20037;-62
2021/04/05 09:17:33;;;;;;;20.88;2.00;;;10.50;49.90;;;;;;4976783;28;20038;-63
2021/04/05 09:20:32;;;;;;;19.20;2.58;;;10.30;50.30;;;;;;4978828;28;20053;-63
2021/04/05 09:23:16;;;;;;;17.52;2.75;;;10.20;51.10;;;;;;4978249;28;20046;-63
2021/04/05 09:26:06;;;;;;;17.58;2.53;;;10.20;51.00;;;;;;4979751;28;20091;-64
2021/04/05 09:28:48;;;;;;;13.07;2.17;;;10.20;50.50;;;;;;4981625;28;20058;-64
2021/04/05 09:31:26;;;;;;;14.52;2.35;;;10.00;49.60;;;;;;4996140;28;20539;-63
2021/04/05 09:34:13;;;;;;;18.40;3.17;;;9.70;49.10;;;;;;4998170;28;20040;-63
2021/04/05 09:37:11;;;;;;;10.48;2.00;;;9.30;49.30;;;;;;4984203;28;20107;-63
2021/04/05 09:40:24;;;;;;;14.70;2.45;;;9.00;50.30;;;;;;4988492;28;20116;-64
2021/04/05 09:43:04;;;;;;;6.47;1.88;;;8.90;51.10;;;;;;4986793;28;20041;-64
2021/04/05 09:45:43;;;;;;;5.10;1.90;;;9.30;53.00;;;;;;4982764;28;20030;-65
2021/04/05 09:48:25;;;;;;;9.02;1.90;;;;;;;;;;4980871;28;20038;-64
2021/04/05 09:50:51;;;;;;;5.65;1.63;;;;;;;;;;4986325;28;20120;-63
2021/04/05 09:53:18;;;;;;;12.02;1.90;;;;;;;;;;4997539;28;20132;-64
2021/04/05 09:55:53;;;;;;;8.40;1.67;;;10.90;54.10;;;;;;4991020;28;20458;-65
2021/04/05 09:58:26;;;;;;;6.63;1.60;;;16.50;40.80;;;;;;4991162;28;20034;-63
2021/04/05 10:00:56;;;;;;;9.30;1.90;;;16.80;39.30;;;;;;4976759;28;20048;-64
2021/04/05 10:03:22;;;;;;;6.90;1.98;;;17.10;38.30;;;;;;4983794;28;20045;-63
2021/04/05 10:05:54;;;;;;;6.50;1.70;;;17.80;38.00;;;;;;5003012;28;20053;-63
2021/04/05 10:08:24;;;;;;;4.80;1.60;;;18.80;36.50;;;;;;4982688;28;20073;-62
2021/04/05 10:10:52;;;;;;;9.68;2.20;;;19.70;34.30;;;;;;4958162;28;20062;-63
2021/04/05 10:13:21;;;;;;;13.02;2.30;;;;;;;;;;4956906;28;20534;-64
2021/04/05 10:15:52;;;;;;;10.07;2.10;;;;;;;;;;4955724;28;20049;-63
2021/04/05 10:18:19;;;;;;;8.63;2.10;;;20.40;32.80;;;;;;4957637;28;20716;-64
2021/04/05 10:20:53;;;;;;;7.90;1.80;;;21.80;29.80;;;;;;4984886;28;20795;-62
2021/04/05 10:23:22;;;;;;;12.80;1.75;;;21.60;28.70;;;;;;4977341;28;20041;-63
2021/04/05 10:25:58;;;;;;;7.05;1.92;;;21.70;29.80;;;;;;4971904;28;20041;-63
2021/04/05 10:28:28;;;;;;;10.52;1.90;;;22.10;28.90;;;;;;4960864;28;20037;-64
2021/04/05 10:30:57;;;;;;;8.25;1.73;;;21.70;27.90;;;;;;4956443;28;20403;-63
2021/04/05 10:33:36;;;;;;;17.13;1.95;;;20.30;27.20;;;;;;4960838;28;20038;-64
2021/04/05 10:36:06;;;;;;;12.23;2.10;;;18.60;28.40;;;;;;4960533;28;21247;-64
2021/04/05 10:38:37;;;;;;;11.68;1.83;;;16.90;29.90;;;;;;4963741;28;20041;-64
2021/04/05 10:41:06;;;;;;;10.93;1.52;;;15.60;30.80;;;;;;4975677;28;20030;-62
2021/04/05 10:43:55;;;;;;;18.90;2.30;;;14.50;31.70;;;;;;4964870;28;20034;-64
2021/04/05 10:46:34;;;;;;;13.57;2.28;;;13.60;33.40;;;;;;4975312;28;20025;-63
2021/04/05 10:49:04;;;;;;;10.20;1.80;;;13.30;35.10;;;;;;4960366;28;20034;-63
2021/04/05 10:51:37;;;;;;;12.65;1.58;;;13.30;35.00;;;;;;4971915;28;20050;-63
2021/04/05 10:54:07;;;;;;;11.02;1.85;;;12.90;35.10;;;;;;4974038;28;20042;-64
2021/04/05 10:56:40;;;;;;;9.60;2.15;;;12.20;35.70;;;;;;4972285;28;20082;-62
2021/04/05 10:59:09;;;;;;;8.35;2.53;;;11.50;36.50;;;;;;4973445;28;20073;-61
2021/04/05 11:01:44;;;;;;;11.05;1.60;;;10.90;37.30;;;;;;4972129;28;20037;-63
2021/04/05 11:04:13;;;;;;;6.20;1.50;;;10.50;37.60;;;;;;4973143;28;20038;-63
2021/04/05 11:06:41;;;;;;;3.42;1.17;;;10.50;39.60;;;;;;4966701;28;20714;-64
2021/04/05 11:09:11;;;;;;;5.78;1.10;;;11.60;39.70;;;;;;4974561;28;20045;-62
2021/04/05 11:11:39;;;;;;;2.85;0.80;;;13.30;38.30;;;;;;4978951;23;20777;-63
2021/04/05 11:14:14;;;;;;;4.88;0.98;;;14.90;35.30;;;;;;4952652;28;20073;-63
2021/04/05 11:16:47;;;;;;;2.17;1.05;;;16.20;32.40;;;;;;4962515;28;20038;-63
2021/04/05 11:19:13;;;;;;;5.95;1.02;;;17.20;30.80;;;;;;4995542;28;20514;-64
2021/04/05 11:21:44;;;;;;;2.25;0.85;;;18.10;30.00;;;;;;4994034;28;22463;-64
2021/04/05 11:24:12;;;;;;;3.63;1.10;;;19.00;29.40;;;;;;4995710;28;20033;-64
2021/04/05 11:26:44;;;;;;;7.95;1.38;;;19.70;28.90;;;;;;4998245;28;20385;-64
2021/04/05 11:29:14;;;;;;;6.72;1.73;;;20.20;27.60;;;;;;4994880;28;20056;-64
2021/04/05 11:31:44;;;;;;;8.75;1.55;;;20.60;27.00;;;;;;4996690;28;20054;-63
2021/04/05 11:34:14;;;;;;;7.25;1.75;;;20.90;27.30;;;;;;4999511;28;20088;-64
2021/04/05 11:36:52;;;;;;;3.72;1.10;;;20.90;26.50;;;;;;5001529;28;20041;-64
2021/04/05 11:39:20;;;;;;;8.35;1.42;;;20.60;26.60;;;;;;4992305;28;20183;-64
2021/04/05 11:41:57;;;;;;;6.22;1.40;;;20.00;27.00;;;;;;4994473;28;20175;-63
2021/04/05 11:44:28;;;;;;;6.53;1.45;;;19.60;27.30;;;;;;4994748;28;20140;-64
2021/04/05 11:46:56;;;;;;;6.70;1.50;;;19.20;28.70;;;;;;5000783;28;20037;-64
2021/04/05 11:49:28;;;;;;;7.47;1.50;;;19.10;28.50;;;;;;4991185;28;20406;-64
2021/04/05 11:52:09;;;;;;;5.93;1.35;;;19.10;28.10;;;;;;4998344;28;20054;-64
2021/04/05 11:55:05;;;;;;;3.20;1.30;;;18.80;28.20;;;;;;4989046;28;20038;-64
2021/04/05 11:58:11;;;;;;;5.50;1.10;;;18.60;28.40;;;;;;4988496;28;20440;-63
2021/04/05 12:00:40;;;;;;;13.65;1.50;;;18.30;27.60;;;;;;4979879;28;20046;-63
2021/04/05 12:03:45;;;;;;;5.35;1.05;;;17.80;28.30;;;;;;4971037;28;20087;-63
2021/04/05 12:06:21;;;;;;;2.67;0.90;;;17.60;27.80;;;;;;4995975;28;20044;-64
2021/04/05 12:09:05;;;;;;;9.05;1.30;;;17.20;27.60;;;;;;4999098;28;20064;-63
2021/04/05 12:11:40;;;;;;;7.43;1.20;;;16.60;27.70;;;;;;4984617;28;25404;-64
2021/04/05 12:14:10;;;;;;;5.03;1.23;;;16.00;28.20;;;;;;4999968;28;20046;-64
2021/04/05 12:16:38;;;;;;;6.93;1.20;;;15.40;29.20;;;;;;4991846;28;20037;-62
2021/04/05 12:19:09;;;;;;;5.07;1.15;;;14.90;29.90;;;;;;4995474;28;20207;-62
2021/04/05 12:21:37;;;;;;;7.30;1.20;;;14.30;30.50;;;;;;5002570;28;20030;-62
2021/04/05 12:24:04;;;;;;;6.13;1.40;;;13.80;31.40;;;;;;5002921;28;20037;-61
2021/04/05 12:26:32;;;;;;;7.40;1.50;;;13.50;32.50;;;;;;4998880;28;20534;-62
2021/04/05 12:29:16;;;;;;;7.85;1.55;;;13.30;33.60;;;;;;4997280;28;20046;-62
2021/04/05 12:31:42;;;;;;;7.32;1.63;;;13.40;33.30;;;;;;5003913;28;20045;-62
2021/04/05 12:34:13;;;;;;;7.95;1.52;;;13.40;32.70;;;;;;4997838;28;23182;-62
2021/04/05 12:36:42;;;;;;;6.75;1.45;;;13.30;33.50;;;;;;5006535;28;20486;-62
2021/04/05 12:39:10;;;;;;;8.30;1.60;;;13.30;33.80;;;;;;5006309;28;20044;-62
2021/04/05 12:41:42;;;;;;;6.93;1.73;;;13.30;34.50;;;;;;5004019;28;20037;-62
2021/04/05 12:44:20;;;;;;;7.60;1.65;;;13.40;33.70;;;;;;4998814;28;20041;-62
2021/04/05 12:46:51;;;;;;;9.85;1.67;;;13.30;34.00;;;;;;4998138;28;20103;-62
2021/04/05 12:49:25;;;;;;;7.10;1.63;;;13.40;34.20;;;;;;4989717;28;20137;-62
2021/04/05 12:52:03;;;;;;;11.73;1.63;;;13.50;34.00;;;;;;5000754;28;20144;-62
2021/04/05 12:54:31;;;;;;;7.68;1.50;;;13.60;34.30;;;;;;4987722;28;20088;-61
2021/04/05 12:57:04;;;;;;;6.05;1.23;;;13.80;34.10;;;;;;4982275;28;20269;-62
2021/04/05 12:59:34;;;;;;;5.82;1.60;;;13.80;32.50;;;;;;4990534;28;20411;-62
2021/04/05 13:02:16;;;;;;;7.82;1.60;;;13.80;31.40;;;;;;4990310;28;20037;-62
2021/04/05 13:04:57;;;;;;;3.88;1.38;;;13.70;31.30;;;;;;4987385;28;21247;-62
2021/04/05 13:07:29;;;;;;;6.13;1.40;;;13.70;31.50;;;;;;4993356;28;20418;-62
2021/04/05 13:10:00;;;;;;;6.85;1.40;;;13.70;31.90;;;;;;5003010;28;20059;-62
2021/04/05 13:12:32;;;;;;;9.02;1.63;;;13.80;31.80;;;;;;4996550;28;20041;-62
2021/04/05 13:15:07;;;;;;;4.97;1.55;;;13.80;31.30;;;;;;4995880;28;20412;-62
2021/04/05 13:17:39;;;;;;;13.15;1.70;;;13.70;30.90;;;;;;4996593;28;20038;-62
2021/04/05 13:20:13;;;;;;;10.00;1.65;;;13.40;31.20;;;;;;4999422;23;20070;-65